• Join FlightAware (Why Join?)
  • Login
  • US Flag 
02:15AM EDT


 

Airport Tracker/Info


-or-


 

Live Flight TrackerFlight Track Log ✈ LXJ549 ✈ 05-Jul-2013 ✈ KMSP - KBML

Flight Track Log - Related Links

Times and Time Zones

All times are in EDT time to prevent confusion due to time zone crossing. See the LXJ549 flight status page for this flight to view local times or setup timezone preferences in your user account.

Time Position Orientation Groundspeed Altitude Reporting Facility
EDT Latitude Longitude Course Direction KTS MPH feet Rate Location/Type
08:23AM 44.8703 -93.1544 83° East 197 227 3,700  Level Minneapolis Center
08:24AM 44.8583 -93.0492 99° East 274 315 7,400 4,080 Climbing Minneapolis Center
08:25AM 44.9081 -92.9553 53° Northeast 299 344 12,000 3,720 Climbing Minneapolis Center
08:27AM 44.9664 -92.8597 49° Northeast 325 374 15,000 2,820 Climbing Minneapolis Center
08:28AM 45.0339 -92.7464 50° Northeast 376 433 17,800 3,060 Climbing Minneapolis Center
08:29AM 44.9495 -92.3711 83° East  Level Estimated
08:29AM 45.1019 -92.6331 50° Northeast 379 436 21,300  Level Minneapolis Center
08:30AM 45.1706 -92.5164 50° Northeast 387 445 24,300 2,640 Climbing Minneapolis Center
08:31AM 45.2397 -92.3975 50° Northeast 392 451 26,700 2,040 Climbing Minneapolis Center
08:32AM 45.2781 -92.2431 71° East 419 482 28,500 1,800 Climbing Minneapolis Center
08:33AM 45.3100 -92.0808 74° East 429 494 30,400 1,980 Climbing Minneapolis Center
08:34AM 45.3456 -91.9150 73° East 438 504 32,500 2,040 Climbing Minneapolis Center
08:35AM 45.3783 -91.7483 74° East 439 505 34,600 1,740 Climbing Minneapolis Center
08:36AM 45.4092 -91.5811 75° East 440 506 36,100 1,620 Climbing Minneapolis Center
08:37AM 45.4481 -91.3814 74° East 440 506 37,900 1,500 Climbing Minneapolis Center
08:38AM 45.4808 -91.2100 75° East 439 505 39,200 1,080 Climbing Minneapolis Center
08:39AM 45.5133 -91.0425 74° East 439 505 40,200 960 Climbing Minneapolis Center
08:40AM 45.5450 -90.8750 75° East 439 505 41,200 900 Climbing Minneapolis Center
08:41AM 45.5761 -90.7103 75° East 435 501 42,100 660 Climbing Minneapolis Center
08:42AM 45.6075 -90.5422 75° East 438 504 42,600 480 Climbing Minneapolis Center
08:43AM 45.6397 -90.3719 75° East 444 511 43,100 480 Climbing Minneapolis Center
08:44AM 45.6703 -90.2011 76° East 447 514 43,600 480 Climbing Minneapolis Center
08:45AM 45.7017 -90.0294 75° East 449 517 44,100 480 Climbing Minneapolis Center
08:46AM 45.7322 -89.8578 76° East 448 516 44,600 420 Climbing Minneapolis Center
08:47AM 45.7625 -89.6861 76° East 446 513 45,000 180 Climbing Minneapolis Center
08:48AM 45.7942 -89.5108 75° East 450 518 45,000  Level Minneapolis Center
08:49AM 45.8247 -89.3358 76° East 451 519 45,000  Level Minneapolis Center
08:50AM 45.8503 -89.1847 76° East 460 529 45,000  Level Minneapolis Center
08:51AM 45.8900 -88.9511 76° East 467 537 45,000  Level Minneapolis Center
08:52AM 45.9208 -88.7650 77° East 473 544 45,000  Level Minneapolis Center
08:53AM 45.9517 -88.5836 76° East 471 542 45,000  Level Minneapolis Center
08:54AM 45.9817 -88.4036 76° East 468 539 45,000  Level Minneapolis Center
08:55AM 46.0175 -88.1856 77° East 468 539 45,000  Level Minneapolis Center
08:56AM 46.0381 -88.0050 81° East 460 529 45,000  Level Minneapolis Center
08:57AM 46.0386 -87.8219 90° East 459 528 45,000  Level Minneapolis Center
08:58AM 46.0436 -87.6347 88° East 464 534 45,000  Level Minneapolis Center
08:59AM 46.0469 -87.4108 89° East 466 536 45,000  Level Minneapolis Center
09:00AM 46.0508 -87.1878 88° East 464 534 45,000  Level Minneapolis Center
09:02AM 46.0533 -86.9608 89° East 470 541 45,000  Level Minneapolis Center
09:03AM 46.0553 -86.7725 89° East 471 542 45,000  Level Minneapolis Center
09:04AM 46.0575 -86.5858 89° East 467 537 45,000 -60 Level Minneapolis Center
09:05AM 46.0583 -86.4350 89° East 470 541 44,900  Descending Minneapolis Center
09:06AM 46.0472 -86.2117 94° East 466 536 45,000  Climbing Minneapolis Center
09:07AM 46.0378 -86.0250 94° East 468 539 45,000  Level Minneapolis Center
09:08AM 46.0272 -85.8381 95° East 469 540 45,000  Level Minneapolis Center
09:09AM 46.0178 -85.6475 94° East 475 547 45,000  Level Minneapolis Center
09:10AM 46.0064 -85.4597 95° East 473 544 45,000  Level Minneapolis Center
09:11AM 45.9956 -85.2706 95° East 474 545 45,000  Level Minneapolis Center
09:12AM 45.9844 -85.0794 95° East 478 550 45,000  Level Minneapolis Center
09:13AM 45.9733 -84.8897 95° East 478 550 45,000  Level Minneapolis Center
09:14AM 45.9614 -84.6964 95° East 481 554 45,000  Level Minneapolis Center
09:15AM 45.9469 -84.4661 95° East 483 556 45,000  Level Minneapolis Center
09:16AM 45.9342 -84.2736 95° East 483 556 45,000  Level Minneapolis Center
09:17AM 45.9000 -84.0167 101° East 490 564 45,000  Level Toronto Center
09:18AM 45.8833 -83.8167 97° East 490 564 45,000  Level Toronto Center
09:19AM 45.8833 -83.6333 90° East 490 564 45,000  Level Toronto Center
09:20AM 45.8667 -83.4333 97° East 490 564 45,000  Level Toronto Center
09:21AM 45.8500 -83.2500 97° East 490 564 45,000  Level Toronto Center
09:22AM 45.8333 -83.0500 97° East 490 564 45,000  Level Toronto Center
09:23AM 45.8167 -82.8667 97° East 490 564 45,000  Level Toronto Center
09:24AM 45.8167 -82.6667 90° East 490 564 45,000  Level Toronto Center
09:25AM 45.7833 -82.4833 105° East 490 564 45,000  Level Toronto Center
09:26AM 45.7667 -82.2833 97° East 490 564 45,000  Level Toronto Center
09:27AM 45.7500 -82.0667 96° East 490 564 45,000  Level Toronto Center
09:28AM 45.7500 -81.9000 90° East 490 564 45,000  Level Toronto Center
09:29AM 45.7167 -81.7167 105° East 490 564 45,000  Level Toronto Center
09:30AM 45.7000 -81.5167 97° East 490 564 45,000  Level Toronto Center
09:31AM 45.6833 -81.3333 97° East 480 552 45,000  Level Toronto Center
09:32AM 45.6667 -81.1333 97° East 480 552 45,000  Level Toronto Center
09:33AM 45.6333 -80.9500 105° East 480 552 45,000  Level Toronto Center
09:34AM 45.6333 -80.7500 90° East 480 552 45,000  Level Toronto Center
09:35AM 45.6167 -80.5667 97° East 480 552 45,000  Level Toronto Center
09:36AM 45.6000 -80.3667 97° East 480 552 45,000  Level Toronto Center
09:37AM 45.5667 -80.1833 104° East 470 541 45,000  Level Toronto Center
09:38AM 45.5500 -80.0167 98° East 470 541 45,000  Level Toronto Center
09:39AM 45.5333 -79.8167 97° East 470 541 45,000  Level Toronto Center
09:40AM 45.5167 -79.6333 97° East 470 541 45,000  Level Toronto Center
09:41AM 45.5000 -79.4500 97° East 470 541 45,000  Level Toronto Center
09:42AM 45.4833 -79.2833 98° East 470 541 45,000  Level Toronto Center
09:43AM 45.4500 -79.0833 103° East 470 541 45,000  Level Toronto Center
09:44AM 45.4333 -78.9000 97° East 470 541 45,000  Level Toronto Center
09:45AM 45.4167 -78.7333 98° East 470 541 45,000  Level Toronto Center
09:46AM 45.4000 -78.5333 97° East 470 541 45,000  Level Toronto Center
09:47AM 45.3667 -78.3500 104° East 470 541 45,000  Level Toronto Center
09:48AM 45.3333 -78.1667 104° East 460 529 45,000  Level Toronto Center
09:49AM 45.3167 -78.0000 98° East 470 541 45,000  Level Toronto Center
09:50AM 45.3000 -77.8000 97° East 460 529 45,000  Level Toronto Center
09:51AM 45.2833 -77.6167 97° East 470 541 45,000  Level Toronto Center
09:52AM 45.2667 -77.4500 98° East 470 541 45,000  Level Toronto Center
09:53AM 45.2500 -77.3667 106° East 460 529 45,000  Level Montreal Center
09:54AM 45.2167 -77.2000 106° East 460 529 45,000  Level Montreal Center
09:54AM 45.2000 -77.0833 101° East 470 541 45,000  Level Toronto Center
09:55AM 45.1833 -76.9167 98° East 470 541 45,000  Level Toronto Center
09:56AM 45.1667 -76.7167 97° East 470 541 45,000  Level Toronto Center
09:57AM 45.1333 -76.5333 104° East 470 541 45,000  Level Toronto Center
09:58AM 45.1000 -76.3500 104° East 470 541 45,000  Level Toronto Center
09:59AM 45.0833 -76.3000 115° Southeast 470 541 45,000  Level Montreal Center
10:00AM 45.0667 -76.1167 97° East 470 541 45,000  Level Montreal Center
10:01AM 45.0333 -75.9167 103° East 480 552 45,000  Level Montreal Center
10:02AM 45.0167 -75.7500 98° East 480 552 45,000  Level Montreal Center
10:03AM 44.9833 -75.5500 103° East 480 552 45,000  Level Montreal Center
10:04AM 44.9667 -75.3833 98° East 480 552 45,000  Level Montreal Center
10:05AM 44.9333 -75.1833 103° East 470 541 45,000  Level Montreal Center
10:06AM 44.9000 -75.0000 104° East 480 552 45,000  Level Montreal Center
10:07AM 44.8833 -74.8167 97° East 480 552 45,000  Level Montreal Center
10:08AM 44.8500 -74.6500 106° East 480 552 45,000 -300 Level Montreal Center
10:09AM 44.8333 -74.4500 97° East 470 541 44,500 -1,020 Descending Montreal Center
10:10AM 44.8000 -74.2667 104° East 480 552 43,000 -1,500 Descending Montreal Center
10:11AM 44.7667 -74.0833 104° East 480 552 41,600 -1,500 Descending Montreal Center
10:12AM 44.7333 -73.9000 104° East 490 564 40,000 -1,500 Descending Montreal Center
10:13AM 44.7000 -73.7000 103° East 500 575 38,600 -1,740 Descending Montreal Center
10:14AM 44.6833 -73.5167 97° East 500 575 36,600 -2,100 Descending Montreal Center
10:15AM 44.6667 -73.3333 97° East 500 575 34,500 -2,280 Descending Montreal Center
10:16AM 44.6667 -73.1167 90° East 500 575 32,100 -2,340 Descending Montreal Center
10:17AM 44.6500 -72.9333 97° East 510 587 29,900 -2,400 Descending Montreal Center
10:18AM 44.6333 -72.7167 96° East 520 598 27,400 -2,940 Descending Montreal Center
10:19AM 44.6333 -72.5333 90° East 500 575 24,100 -3,300 Descending Montreal Center
10:20AM 44.6333 -72.3500 90° East 480 552 20,800 -3,420 Descending Montreal Center
10:21AM 44.6167 -72.1667 97° East 450 518 17,300 -3,540 Descending Montreal Center
10:22AM 44.6167 -72.0000 90° East 430 495 13,800 -3,420 Descending Montreal Center
10:23AM 44.6000 -71.8500 99° East 390 449 10,500 -2,700 Descending Montreal Center
10:24AM 44.6000 -71.7333 90° East 330 380 8,400 -1,560 Descending Montreal Center
10:25AM 44.5833 -71.6167 101° East 310 357 7,400 -600 Descending Montreal Center
10:26AM 44.5906 -71.4606 86° East 309 356 7,000 -840 Descending Boston Center
10:27AM 44.5856 -71.3703 94° East 303 349 5,500 -1,500 Descending Boston Center